Time;durP1;ratioP1;P1;durP2;ratioP2;P2;SDS_P1;SDS_P2;PMS_P1;PMS_P2;Temp;Humidity;BMP_temperature;BMP_pressure;BME280_temperature;BME280_humidity;BME280_pressure;Samples;Min_cycle;Max_cycle;Signal;HPM_P1;HPM_P2
2023/01/17 00:02:02;;;;;;;;;;;;;;;1.85;80.20;98052.02;105167;1288;59611;-76
2023/01/17 00:09:58;;;;;;;;;;;;;;;1.98;80.18;98038.48;105185;1289;73886;-76
2023/01/17 00:12:28;;;;;;;;;;;;;;;2.03;80.15;98041.45;105231;1288;68969;-76
2023/01/17 00:14:55;;;;;;;;;;;;;;;2.06;80.20;98039.67;105199;1291;71514;-76
2023/01/17 00:17:24;;;;;;;;;;;;;;;2.08;80.17;98040.27;105033;1288;61170;-76
2023/01/17 01:34:17;;;;;;;;;;;;;;;2.69;80.77;97911.86;105103;1287;61061;-75
2023/01/17 01:36:42;;;;;;;;;;;;;;;2.70;80.83;97901.27;105087;1288;59272;-76
2023/01/17 01:39:08;;;;;;;;;;;;;;;2.71;80.88;97893.10;105270;1288;61260;-75
2023/01/17 01:41:33;;;;;;;;;;;;;;;2.73;80.82;97880.46;105248;1288;59437;-75
2023/01/17 01:43:58;;;;;;;;;;;;;;;2.74;80.93;97864.09;105168;1288;61298;-75
2023/01/17 01:46:50;;;;;;;;;;;;;;;2.76;80.95;97848.91;105195;1288;59655;-75
2023/01/17 01:49:20;;;;;;;;;;;;;;;2.78;80.97;97843.58;104396;1296;74074;-76
2023/01/17 01:51:48;;;;;;;;;;;;;;;2.80;81.05;97845.55;104419;1296;68116;-76
2023/01/17 01:54:16;;;;;;;;;;;;;;;2.82;81.03;97856.20;104410;1297;73295;-76
2023/01/17 01:56:43;;;;;;;;;;;;;;;2.85;80.92;97867.52;104423;1297;61430;-76
2023/01/17 01:59:10;;;;;;;;;;;;;;;2.88;80.97;97878.83;104291;1297;61180;-76
2023/01/17 02:01:35;;;;;;;;;;;;;;;2.90;80.96;97892.20;104405;1297;74840;-76
2023/01/17 02:04:01;;;;;;;;;;;;;;;2.93;80.99;97889.56;104400;1296;61296;-76
2023/01/17 02:06:37;;;;;;;;;;;;;;;2.95;80.96;97881.17;104386;1297;61255;-76
2023/01/17 02:09:05;;;;;;;;;;;;;;;2.95;80.99;97878.10;104414;1296;61233;-76
2023/01/17 02:11:32;;;;;;;;;;;;;;;2.95;80.96;97876.05;104392;1297;59732;-76
2023/01/17 02:13:57;;;;;;;;;;;;;;;2.95;80.98;97872.14;104375;1297;74698;-76
2023/01/17 02:16:49;;;;;;;;;;;;;;;2.96;81.01;97870.09;104368;1299;61307;-76
2023/01/17 02:19:26;;;;;;;;;;;;;;;2.96;80.97;97866.35;104398;1296;72229;-76
2023/01/17 02:22:16;;;;;;;;;;;;;;;2.96;81.04;97861.23;104425;1299;61411;-76
2023/01/17 02:24:52;;;;;;;;;;;;;;;2.97;81.12;97858.98;104410;1296;61256;-76
2023/01/17 02:27:44;;;;;;;;;;;;;;;2.98;81.10;97852.98;105038;1287;75031;-76
2023/01/17 02:30:44;;;;;;;;;;;;;;;2.99;81.17;97849.91;105124;1288;67942;-76
2023/01/17 02:33:26;;;;;;;;;;;;;;;3.01;81.15;97846.13;104443;1296;72496;-76
2023/01/17 02:36:26;;;;;;;;;;;;;;;3.02;81.13;97836.03;104420;1297;61262;-76
2023/01/17 02:38:59;;;;;;;;;;;;;;;3.03;81.16;97831.76;104040;1302;60410;-76
2023/01/17 02:41:36;;;;;;;;;;;;;;;3.04;81.16;97833.12;104055;1302;74452;-76
2023/01/17 02:44:02;;;;;;;;;;;;;;;3.05;81.30;97827.13;104001;1303;68511;-76
2023/01/17 02:46:27;;;;;;;;;;;;;;;3.05;81.23;97833.23;104026;1303;61287;-76
2023/01/17 02:48:54;;;;;;;;;;;;;;;3.06;81.25;97832.17;103844;1302;270483;-76
2023/01/17 02:51:29;;;;;;;;;;;;;;;3.07;81.24;97826.70;104014;1303;59259;-76
2023/01/17 02:54:24;;;;;;;;;;;;;;;3.08;81.31;97820.04;104002;1302;72630;-76
2023/01/17 02:57:15;;;;;;;;;;;;;;;3.09;81.41;97812.00;103640;1307;67659;-76
2023/01/17 02:59:59;;;;;;;;;;;;;;;3.10;81.48;97804.33;102884;1314;72175;-75
2023/01/17 03:02:30;;;;;;;;;;;;;;;3.11;81.29;97808.38;102892;1317;59394;-75
2023/01/17 03:05:07;;;;;;;;;;;;;;;3.12;81.33;97811.71;102870;1315;61170;-75
2023/01/17 03:07:33;;;;;;;;;;;;;;;3.14;81.46;97810.29;103098;1308;72941;-76
2023/01/17 03:10:00;;;;;;;;;;;;;;;3.15;81.38;97807.70;100817;1309;5075781;-76
2023/01/17 03:12:27;;;;;;;;;;;;;;;3.18;81.35;97818.17;104213;1308;61742;-76
2023/01/17 03:14:52;;;;;;;;;;;;;;;3.20;81.32;97817.75;103973;1305;61252;-76
2023/01/17 03:17:18;;;;;;;;;;;;;;;3.23;81.37;97819.21;104038;1303;63794;-76
2023/01/17 03:19:43;;;;;;;;;;;;;;;3.24;81.31;97815.94;104039;1301;67468;-76
2023/01/17 03:22:08;;;;;;;;;;;;;;;3.25;81.43;97818.10;104064;1302;60934;-76
2023/01/17 03:24:34;;;;;;;;;;;;;;;3.27;81.40;97814.48;104018;1302;61257;-76
2023/01/17 03:26:59;;;;;;;;;;;;;;;3.27;81.30;97813.30;104048;1302;61586;-76
2023/01/17 03:29:24;;;;;;;;;;;;;;;3.27;81.39;97808.70;104078;1305;61233;-76
2023/01/17 03:31:50;;;;;;;;;;;;;;;3.27;81.46;97804.60;104015;1303;59894;-75
2023/01/17 03:34:15;;;;;;;;;;;;;;;3.28;81.45;97806.10;104359;1296;62255;-75
2023/01/17 03:36:41;;;;;;;;;;;;;;;3.29;81.41;97801.47;104770;1289;61591;-75
2023/01/17 03:39:06;;;;;;;;;;;;;;;3.29;81.41;97797.89;105118;1288;59472;-75
2023/01/17 03:41:31;;;;;;;;;;;;;;;3.29;81.47;97797.71;105231;1288;61243;-75
2023/01/17 03:43:56;;;;;;;;;;;;;;;3.30;81.47;97798.89;105233;1287;61247;-75
2023/01/17 03:46:23;;;;;;;;;;;;;;;3.30;81.43;97801.09;105201;1288;59469;-75
2023/01/17 03:48:49;;;;;;;;;;;;;;;3.30;81.47;97800.23;105214;1288;61490;-75
2023/01/17 03:51:14;;;;;;;;;;;;;;;3.31;81.46;97798.68;105254;1288;61176;-75
2023/01/17 03:53:40;;;;;;;;;;;;;;;3.32;81.50;97792.02;105307;1288;61336;-76
2023/01/17 03:56:05;;;;;;;;;;;;;;;3.32;81.43;97786.38;105213;1288;61260;-76
2023/01/17 03:58:32;;;;;;;;;;;;;;;3.33;81.46;97788.57;106246;1287;61283;-76
2023/01/17 04:00:57;;;;;;;;;;;;;;;3.34;81.45;97787.18;106251;1287;59182;-77
2023/01/17 04:03:22;;;;;;;;;;;;;;;3.34;81.46;97787.20;106156;1288;59165;-77
2023/01/17 04:05:47;;;;;;;;;;;;;;;3.35;81.49;97787.33;105268;1287;61489;-76
2023/01/17 04:08:13;;;;;;;;;;;;;;;3.35;81.48;97784.95;105196;1288;74848;-76
2023/01/17 04:10:38;;;;;;;;;;;;;;;3.36;81.50;97783.40;105251;1287;61282;-76
2023/01/17 04:13:03;;;;;;;;;;;;;;;3.36;81.46;97779.64;105218;1288;61298;-76
2023/01/17 04:15:29;;;;;;;;;;;;;;;3.36;81.46;97781.17;105266;1291;59340;-76
2023/01/17 04:17:54;;;;;;;;;;;;;;;3.36;81.45;97779.30;105246;1288;61227;-76
2023/01/17 04:20:37;;;;;;;;;;;;;;;3.36;81.45;97782.72;105221;1287;61486;-76
2023/01/17 04:23:02;;;;;;;;;;;;;;;3.35;81.48;97781.89;105237;1288;71211;-76
2023/01/17 04:25:29;;;;;;;;;;;;;;;3.35;81.51;97780.36;105271;1288;61374;-76
2023/01/17 04:27:55;;;;;;;;;;;;;;;3.35;81.51;97771.33;105199;1288;61286;-76
2023/01/17 04:30:20;;;;;;;;;;;;;;;3.35;81.52;97769.80;105218;1288;61382;-76
2023/01/17 04:32:46;;;;;;;;;;;;;;;3.34;81.47;97764.02;105224;1288;59437;-75
2023/01/17 04:35:12;;;;;;;;;;;;;;;3.34;81.47;97761.81;105336;1287;61407;-75
2023/01/17 04:37:37;;;;;;;;;;;;;;;3.34;81.46;97760.64;105068;1288;61449;-76
2023/01/17 04:40:03;;;;;;;;;;;;;;;3.33;81.41;97762.02;105069;1288;61278;-76
2023/01/17 04:42:28;;;;;;;;;;;;;;;3.32;81.47;97757.95;105549;1288;59546;-76
2023/01/17 04:45:13;;;;;;;;;;;;;;;3.32;81.45;97757.96;105173;1287;71344;-76
2023/01/17 04:47:39;;;;;;;;;;;;;;;3.32;81.50;97757.77;105139;1288;61276;-77
2023/01/17 04:50:04;;;;;;;;;;;;;;;3.32;81.41;97750.98;105133;1287;61253;-76
2023/01/17 04:52:30;;;;;;;;;;;;;;;3.32;81.43;97753.20;105072;1288;61486;-76
2023/01/17 04:54:55;;;;;;;;;;;;;;;3.32;81.44;97752.00;104974;1291;61240;-76
2023/01/17 04:57:20;;;;;;;;;;;;;;;3.31;81.49;97750.32;105144;1289;61732;-76
2023/01/17 04:59:46;;;;;;;;;;;;;;;3.31;81.42;97755.44;105186;1288;59426;-76
2023/01/17 05:02:12;;;;;;;;;;;;;;;3.30;81.45;97751.39;104982;1288;61375;-76
2023/01/17 05:04:37;;;;;;;;;;;;;;;3.29;81.43;97749.71;105181;1288;61237;-76
2023/01/17 05:07:03;;;;;;;;;;;;;;;3.28;81.42;97750.08;105060;1289;59131;-76
2023/01/17 05:09:29;;;;;;;;;;;;;;;3.28;81.45;97752.48;105126;1287;61123;-76
2023/01/17 05:11:55;;;;;;;;;;;;;;;3.28;81.41;97756.73;106295;1291;59661;-78
2023/01/17 05:14:24;;;;;;;;;;;;;;;3.28;81.39;97757.23;106248;1288;59501;-74
2023/01/17 05:16:51;;;;;;;;;;;;;;;3.29;81.42;97762.30;106232;1288;71671;-75
2023/01/17 05:19:16;;;;;;;;;;;;;;;3.30;81.36;97760.41;106189;1288;59224;-75
2023/01/17 05:21:41;;;;;;;;;;;;;;;3.30;81.30;97761.77;106135;1288;59379;-75
2023/01/17 05:24:07;;;;;;;;;;;;;;;3.31;81.37;97763.27;106229;1288;59988;-75
2023/01/17 05:26:32;;;;;;;;;;;;;;;3.32;81.34;97761.87;106122;1288;59497;-74
2023/01/17 05:28:58;;;;;;;;;;;;;;;3.33;81.25;97758.94;106145;1290;59343;-74
2023/01/17 05:31:23;;;;;;;;;;;;;;;3.34;81.33;97764.02;105978;1291;59240;-74
2023/01/17 05:33:48;;;;;;;;;;;;;;;3.35;81.29;97763.31;106159;1288;59738;-74
2023/01/17 05:36:14;;;;;;;;;;;;;;;3.36;81.28;97759.89;98763;1288;10002262;-74
2023/01/17 05:38:39;;;;;;;;;;;;;;;3.37;81.30;97761.05;106109;1288;59327;-73
2023/01/17 05:41:04;;;;;;;;;;;;;;;3.38;81.31;97759.66;106273;1288;59124;-73
2023/01/17 05:43:30;;;;;;;;;;;;;;;3.39;81.30;97761.84;106190;1288;59498;-73
2023/01/17 05:45:55;;;;;;;;;;;;;;;3.40;81.31;97759.77;106016;1288;59190;-73
2023/01/17 05:48:20;;;;;;;;;;;;;;;3.41;81.26;97758.54;106126;1288;59223;-74
2023/01/17 05:50:46;;;;;;;;;;;;;;;3.42;81.20;97759.18;106224;1288;58863;-74
2023/01/17 05:53:12;;;;;;;;;;;;;;;3.43;81.28;97763.93;106243;1288;59358;-73
2023/01/17 05:55:38;;;;;;;;;;;;;;;3.43;81.26;97757.45;105996;1288;59050;-73
2023/01/17 05:58:05;;;;;;;;;;;;;;;3.44;81.28;97768.65;105939;1288;59028;-73
2023/01/17 06:00:31;;;;;;;;;;;;;;;3.46;81.22;97770.79;106091;1288;59506;-74
2023/01/17 06:02:58;;;;;;;;;;;;;;;3.47;81.21;97771.60;106074;1291;59260;-74
2023/01/17 06:05:26;;;;;;;;;;;;;;;3.49;81.20;97776.50;106074;1291;69319;-74
2023/01/17 06:07:51;;;;;;;;;;;;;;;3.49;81.16;97777.84;106079;1291;59140;-74
2023/01/17 06:10:18;;;;;;;;;;;;;;;3.49;81.21;97781.91;106088;1288;59050;-74
2023/01/17 06:12:44;;;;;;;;;;;;;;;3.51;81.20;97782.40;106109;1288;59229;-74
2023/01/17 06:15:10;;;;;;;;;;;;;;;3.50;81.20;97778.83;106187;1291;59538;-74
2023/01/17 06:17:36;;;;;;;;;;;;;;;3.49;81.17;97782.60;106103;1288;58751;-73
2023/01/17 06:20:02;;;;;;;;;;;;;;;3.50;81.18;97788.71;106237;1288;59159;-73
2023/01/17 06:22:28;;;;;;;;;;;;;;;3.50;81.21;97797.39;106117;1288;59002;-73
2023/01/17 06:24:54;;;;;;;;;;;;;;;3.50;81.22;97795.19;106146;1288;59004;-73
2023/01/17 06:27:19;;;;;;;;;;;;;;;3.49;81.20;97798.27;106094;1288;59262;-74
2023/01/17 06:29:44;;;;;;;;;;;;;;;3.50;81.20;97796.90;106143;1290;59488;-74
2023/01/17 06:32:12;;;;;;;;;;;;;;;3.50;81.15;97799.11;106207;1288;58983;-74
2023/01/17 06:34:37;;;;;;;;;;;;;;;3.49;81.12;97799.98;106221;1287;59591;-73
2023/01/17 06:37:03;;;;;;;;;;;;;;;3.49;81.21;97806.30;106206;1288;59387;-74
2023/01/17 06:39:28;;;;;;;;;;;;;;;3.50;81.16;97801.15;105353;1288;61276;-73
2023/01/17 06:41:53;;;;;;;;;;;;;;;3.50;81.19;97809.66;105227;1288;61267;-73
2023/01/17 06:44:19;;;;;;;;;;;;;;;3.50;81.20;97809.32;105169;1288;61146;-73
2023/01/17 06:46:46;;;;;;;;;;;;;;;3.51;81.26;97810.28;105210;1287;61253;-73
2023/01/17 06:49:12;;;;;;;;;;;;;;;3.53;81.23;97809.89;105244;1288;59218;-73
2023/01/17 06:51:37;;;;;;;;;;;;;;;3.53;81.25;97807.02;105115;1293;61217;-73
2023/01/17 06:54:03;;;;;;;;;;;;;;;3.53;81.29;97807.85;104862;1289;61397;-73
2023/01/17 06:56:32;;;;;;;;;;;;;;;3.54;81.29;97806.64;105038;1288;59816;-73
2023/01/17 06:58:57;;;;;;;;;;;;;;;3.54;81.30;97808.50;105071;1288;61590;-73
2023/01/17 07:01:23;;;;;;;;;;;;;;;3.55;81.28;97812.73;105197;1288;61258;-72
2023/01/17 07:03:48;;;;;;;;;;;;;;;3.56;81.26;97811.15;105166;1289;61266;-72
2023/01/17 07:06:14;;;;;;;;;;;;;;;3.56;81.28;97816.44;105118;1293;61247;-72
2023/01/17 07:08:39;;;;;;;;;;;;;;;3.56;81.29;97813.20;105236;1288;61270;-72
2023/01/17 07:11:06;;;;;;;;;;;;;;;3.57;81.27;97817.96;105171;1288;61424;-73
2023/01/17 07:13:35;;;;;;;;;;;;;;;3.57;81.30;97825.94;105960;1288;71705;-73
2023/01/17 07:16:01;;;;;;;;;;;;;;;3.58;81.29;97821.48;106112;1288;59382;-73
2023/01/17 07:18:26;;;;;;;;;;;;;;;3.59;81.25;97821.27;106109;1288;58889;-73
2023/01/17 07:20:52;;;;;;;;;;;;;;;3.59;81.19;97818.37;105304;1288;59648;-72
2023/01/17 07:23:19;;;;;;;;;;;;;;;3.59;81.14;97820.23;105149;1288;61137;-72
2023/01/17 07:25:55;;;;;;;;;;;;;;;3.60;81.12;97824.32;105127;1288;59593;-73
2023/01/17 07:28:20;;;;;;;;;;;;;;;3.59;81.17;97819.91;105069;1289;59682;-72
2023/01/17 07:30:46;;;;;;;;;;;;;;;3.59;81.21;97822.14;105070;1293;61284;-73
2023/01/17 07:33:11;;;;;;;;;;;;;;;3.58;81.15;97827.77;105133;1288;59682;-73
2023/01/17 07:35:37;;;;;;;;;;;;;;;3.58;81.18;97833.76;105147;1288;62004;-72
2023/01/17 07:38:02;;;;;;;;;;;;;;;3.58;81.20;97832.55;104964;1291;61203;-73
2023/01/17 07:40:28;;;;;;;;;;;;;;;3.58;81.12;97833.06;105064;1288;59317;-73
2023/01/17 07:43:00;;;;;;;;;;;;;;;3.59;81.13;97833.55;105049;1289;59382;-73
2023/01/17 07:45:26;;;;;;;;;;;;;;;3.59;81.13;97836.42;105079;1289;71061;-72
2023/01/17 07:47:51;;;;;;;;;;;;;;;3.61;81.14;97840.81;105031;1291;59375;-72
2023/01/17 07:50:16;;;;;;;;;;;;;;;3.62;81.08;97839.92;105037;1288;61389;-72
2023/01/17 07:52:41;;;;;;;;;;;;;;;3.62;81.10;97839.91;105152;1291;61498;-72
2023/01/17 07:55:08;;;;;;;;;;;;;;;3.64;81.11;97845.63;105219;1289;61279;-72
2023/01/17 07:57:33;;;;;;;;;;;;;;;3.64;81.15;97845.59;105046;1289;71596;-73
2023/01/17 07:59:58;;;;;;;;;;;;;;;3.65;81.10;97844.89;105082;1289;61456;-73
2023/01/17 08:02:24;;;;;;;;;;;;;;;3.66;81.14;97845.20;105160;1289;61323;-73
2023/01/17 08:04:49;;;;;;;;;;;;;;;3.68;81.15;97843.60;105234;1288;59453;-73
2023/01/17 08:07:14;;;;;;;;;;;;;;;3.71;81.11;97849.48;105231;1291;58967;-73
2023/01/17 08:09:41;;;;;;;;;;;;;;;3.72;81.03;97843.14;105214;1288;63151;-73
2023/01/17 08:12:06;;;;;;;;;;;;;;;3.74;81.05;97846.33;105120;1288;61266;-73
2023/01/17 08:14:31;;;;;;;;;;;;;;;3.75;81.04;97851.23;105194;1288;61416;-73
2023/01/17 08:17:06;;;;;;;;;;;;;;;3.76;81.03;97855.27;105190;1288;60431;-73
2023/01/17 08:19:31;;;;;;;;;;;;;;;3.78;81.09;97856.23;105230;1288;71541;-74
2023/01/17 08:21:57;;;;;;;;;;;;;;;3.80;81.12;97854.98;105097;1291;61545;-73
2023/01/17 08:24:22;;;;;;;;;;;;;;;3.82;81.08;97859.51;105137;1294;61244;-73
2023/01/17 08:26:47;;;;;;;;;;;;;;;3.85;81.08;97862.46;105261;1291;61456;-73
2023/01/17 08:29:13;;;;;;;;;;;;;;;3.89;81.03;97864.73;105096;1288;61291;-73
2023/01/17 08:31:39;;;;;;;;;;;;;;;3.92;81.02;97868.20;105312;1288;61120;-73
2023/01/17 08:34:05;;;;;;;;;;;;;;;3.94;81.03;97867.27;105149;1289;61299;-73
2023/01/17 08:36:30;;;;;;;;;;;;;;;3.98;80.97;97875.00;105138;1289;61209;-73
2023/01/17 08:38:56;;;;;;;;;;;;;;;4.03;81.07;97882.01;105175;1292;61406;-73
2023/01/17 08:41:22;;;;;;;;;;;;;;;4.08;81.02;97881.66;105149;1289;59279;-73
2023/01/17 08:43:48;;;;;;;;;;;;;;;4.12;80.99;97882.70;105098;1288;60415;-72
2023/01/17 08:46:14;;;;;;;;;;;;;;;4.16;81.03;97882.39;105215;1288;59462;-73
2023/01/17 08:48:39;;;;;;;;;;;;;;;4.18;80.99;97888.09;105157;1288;59552;-73
2023/01/17 08:51:06;;;;;;;;;;;;;;;4.20;80.96;97886.49;105093;1288;61414;-73
2023/01/17 08:53:31;;;;;;;;;;;;;;;4.20;80.96;97891.08;105129;1293;63878;-72
2023/01/17 08:55:58;;;;;;;;;;;;;;;4.21;80.96;97890.04;105083;1294;61317;-73
2023/01/17 08:58:23;;;;;;;;;;;;;;;4.21;80.88;97890.55;105122;1288;59698;-73
2023/01/17 09:00:48;;;;;;;;;;;;;;;4.21;80.84;97895.17;105307;1291;59720;-73
2023/01/17 09:03:14;;;;;;;;;;;;;;;4.21;80.96;97900.95;105108;1294;59920;-72
2023/01/17 09:05:39;;;;;;;;;;;;;;;4.21;80.92;97904.20;105120;1293;59448;-73
2023/01/17 09:08:05;;;;;;;;;;;;;;;4.21;80.95;97905.23;105000;1288;61167;-73
2023/01/17 09:10:30;;;;;;;;;;;;;;;4.21;80.94;97913.75;105129;1292;61317;-73
2023/01/17 09:12:56;;;;;;;;;;;;;;;4.20;80.96;97919.89;105186;1294;61392;-73
2023/01/17 09:15:21;;;;;;;;;;;;;;;4.21;80.94;97930.45;105179;1288;60150;-73
2023/01/17 09:17:46;;;;;;;;;;;;;;;4.22;81.00;97935.19;105133;1288;59793;-73
2023/01/17 09:20:12;;;;;;;;;;;;;;;4.23;80.95;97938.75;105231;1288;61240;-73
2023/01/17 09:22:37;;;;;;;;;;;;;;;4.24;80.90;97947.23;106061;1289;59184;-73
2023/01/17 09:25:04;;;;;;;;;;;;;;;4.24;80.94;97945.02;106047;1287;60421;-73
2023/01/17 09:27:29;;;;;;;;;;;;;;;4.24;80.94;97946.52;106241;1288;59507;-73
2023/01/17 09:29:54;;;;;;;;;;;;;;;4.26;80.96;97941.19;106077;1289;59790;-73
2023/01/17 09:32:19;;;;;;;;;;;;;;;4.29;80.98;97948.92;106021;1288;59096;-73
2023/01/17 09:34:45;;;;;;;;;;;;;;;4.34;80.98;97953.37;106157;1289;59332;-73
2023/01/17 09:37:11;;;;;;;;;;;;;;;4.38;80.99;97955.45;106165;1289;58995;-73
2023/01/17 09:39:36;;;;;;;;;;;;;;;4.44;81.01;97952.69;106188;1289;59024;-73
2023/01/17 09:42:01;;;;;;;;;;;;;;;4.52;81.08;97948.67;106188;1289;59246;-73
2023/01/17 09:44:31;;;;;;;;;;;;;;;4.61;81.03;97950.73;106192;1288;59487;-73
2023/01/17 09:47:05;;;;;;;;;;;;;;;4.69;81.03;97949.77;106242;1287;59343;-73
2023/01/17 09:49:44;;;;;;;;;;;;;;;4.72;80.97;97951.02;106183;1286;74135;-73
2023/01/17 09:52:12;;;;;;;;;;;;;;;4.73;80.86;97949.95;106049;1289;68083;-73
2023/01/17 09:54:39;;;;;;;;;;;;;;;4.74;80.91;97950.61;106241;1288;71710;-73
2023/01/17 09:57:15;;;;;;;;;;;;;;;4.75;80.93;97949.90;106244;1288;59014;-73
2023/01/17 09:59:53;;;;;;;;;;;;;;;4.77;80.93;97946.91;106099;1289;60654;-73
2023/01/17 10:02:44;;;;;;;;;;;;;;;4.81;80.96;97949.69;106197;1288;73447;-73
2023/01/17 10:05:39;;;;;;;;;;;;;;;4.84;80.97;97952.99;106190;1288;66887;-73
2023/01/17 10:08:16;;;;;;;;;;;;;;;4.88;80.93;97955.38;106065;1287;71242;-74
2023/01/17 10:10:50;;;;;;;;;;;;;;;4.93;80.98;97956.91;106159;1288;59375;-73
2023/01/17 10:13:24;;;;;;;;;;;;;;;4.99;80.95;97957.39;106187;1288;59444;-75
2023/01/17 10:16:09;;;;;;;;;;;;;;;5.03;80.93;97964.08;106191;1289;74499;-75
2023/01/17 10:18:34;;;;;;;;;;;;;;;5.10;81.03;97968.61;106145;1288;69617;-75
2023/01/17 10:21:10;;;;;;;;;;;;;;;5.16;81.02;97960.01;106223;1288;59050;-73
2023/01/17 10:23:51;;;;;;;;;;;;;;;5.23;80.97;97962.12;106212;1288;59352;-73
2023/01/17 10:26:17;;;;;;;;;;;;;;;5.32;80.95;97960.92;106224;1288;60559;-73
2023/01/17 10:28:47;;;;;;;;;;;;;;;5.38;80.97;97961.73;106024;1288;73896;-73
2023/01/17 10:31:21;;;;;;;;;;;;;;;5.40;80.88;97964.21;106154;1289;69261;-73
2023/01/17 10:33:56;;;;;;;;;;;;;;;5.42;80.81;97958.33;106094;1289;71657;-73
2023/01/17 10:36:26;;;;;;;;;;;;;;;5.41;80.78;97958.54;106045;1289;59333;-73
2023/01/17 10:38:55;;;;;;;;;;;;;;;5.40;80.76;97962.88;106052;1289;60337;-73
2023/01/17 10:41:30;;;;;;;;;;;;;;;5.38;80.75;97967.72;106044;1288;72590;-73
2023/01/17 10:44:18;;;;;;;;;;;;;;;5.35;80.65;97967.67;106182;1288;70652;-73
2023/01/17 10:46:52;;;;;;;;;;;;;;;5.32;80.62;97967.23;106093;1289;72909;-73
2023/01/17 10:49:22;;;;;;;;;;;;;;;5.35;80.74;97972.44;106008;1289;59411;-73
2023/01/17 10:51:58;;;;;;;;;;;;;;;5.39;80.75;97971.44;106094;1288;58952;-73
2023/01/17 10:54:34;;;;;;;;;;;;;;;5.44;80.80;97969.19;106212;1289;73962;-73
2023/01/17 10:56:59;;;;;;;;;;;;;;;5.51;80.75;97965.52;106248;1289;66792;-73
2023/01/17 10:59:29;;;;;;;;;;;;;;;5.56;80.58;97967.72;106079;1289;58993;-74
2023/01/17 11:01:55;;;;;;;;;;;;;;;5.60;80.65;97968.77;106173;1289;59022;-73
2023/01/17 11:04:23;;;;;;;;;;;;;;;5.63;80.66;97963.67;106079;1289;59094;-73
2023/01/17 11:07:07;;;;;;;;;;;;;;;5.64;80.55;97966.89;106074;1289;73263;-74
2023/01/17 11:09:37;;;;;;;;;;;;;;;5.63;80.52;97965.55;106202;1289;67190;-73
2023/01/17 11:12:02;;;;;;;;;;;;;;;5.65;80.51;97974.35;105791;1288;155770;-73
2023/01/17 11:14:29;;;;;;;;;;;;;;;5.68;80.51;97974.11;106062;1292;59443;-73
2023/01/17 11:17:00;;;;;;;;;;;;;;;5.70;80.44;97969.39;106051;1294;58999;-73
2023/01/17 11:19:30;;;;;;;;;;;;;;;5.72;80.39;97969.45;106155;1287;72452;-73
2023/01/17 11:22:03;;;;;;;;;;;;;;;5.74;80.41;97971.07;106052;1289;66882;-73
2023/01/17 11:24:39;;;;;;;;;;;;;;;5.75;80.29;97974.96;106066;1288;72112;-73
2023/01/17 11:27:05;;;;;;;;;;;;;;;5.77;80.40;97977.63;106182;1289;59578;-73
2023/01/17 11:29:33;;;;;;;;;;;;;;;5.80;80.27;97978.71;106090;1288;59333;-73
2023/01/17 11:32:17;;;;;;;;;;;;;;;5.84;80.33;97978.55;106242;1288;74529;-73
2023/01/17 11:34:42;;;;;;;;;;;;;;;5.88;80.22;97977.55;106180;1287;67873;-73
2023/01/17 11:37:18;;;;;;;;;;;;;;;5.89;80.22;97980.10;106035;1288;59250;-73
2023/01/17 11:39:46;;;;;;;;;;;;;;;5.91;80.13;97980.36;106163;1291;59170;-73
2023/01/17 11:42:51;;;;;;;;;;;;;;;5.92;80.08;97977.58;106046;1292;60409;-73
2023/01/17 11:45:27;;;;;;;;;;;;;;;5.93;80.02;97982.17;105550;1294;74299;-73
2023/01/17 11:48:07;;;;;;;;;;;;;;;5.93;79.96;97983.20;105438;1297;68437;-73
2023/01/17 11:50:37;;;;;;;;;;;;;;;5.91;79.58;97982.23;105497;1296;73078;-73
2023/01/17 11:53:04;;;;;;;;;;;;;;;5.88;79.68;97989.19;105423;1297;59474;-73
2023/01/17 11:55:30;;;;;;;;;;;;;;;5.84;79.72;97986.57;105556;1295;59627;-73
2023/01/17 11:57:55;;;;;;;;;;;;;;;5.81;79.62;97986.55;105655;1294;59625;-73
2023/01/17 12:00:27;;;;;;;;;;;;;;;5.77;79.68;97988.41;105561;1296;58812;-73
2023/01/17 12:03:12;;;;;;;;;;;;;;;5.73;79.65;97988.59;105591;1296;71574;-73
2023/01/17 12:06:04;;;;;;;;;;;;;;;5.67;79.53;97992.23;105587;1298;59306;-73
2023/01/17 12:08:50;;;;;;;;;;;;;;;5.61;79.62;97992.62;105158;1302;59577;-73
2023/01/17 12:11:24;;;;;;;;;;;;;;;5.58;79.38;97992.73;105150;1302;73359;-73
2023/01/17 12:14:01;;;;;;;;;;;;;;;5.57;79.52;97993.83;105129;1300;67760;-73
2023/01/17 12:17:02;;;;;;;;;;;;;;;5.55;79.52;97993.88;105353;1296;71135;-73
2023/01/17 12:19:31;;;;;;;;;;;;;;;5.54;79.56;97994.42;105210;1300;59540;-73
2023/01/17 12:22:14;;;;;;;;;;;;;;;5.54;79.61;97995.80;105545;1297;60094;-73
2023/01/17 12:25:03;;;;;;;;;;;;;;;5.54;79.60;97998.52;105648;1297;73688;-76
2023/01/17 12:27:46;;;;;;;;;;;;;;;5.54;79.55;98003.33;105250;1300;67019;-73
2023/01/17 12:30:31;;;;;;;;;;;;;;;5.53;79.44;98006.92;105211;1300;72274;-75
2023/01/17 12:32:56;;;;;;;;;;;;;;;5.54;79.56;98007.42;105140;1302;60739;-74
2023/01/17 12:35:41;;;;;;;;;;;;;;;5.54;79.55;98007.08;105152;1306;59046;-74
2023/01/17 12:38:08;;;;;;;;;;;;;;;5.55;79.55;98008.75;105142;1304;74684;-75
2023/01/17 12:40:36;;;;;;;;;;;;;;;5.56;79.47;98011.28;105110;1305;68565;-74
2023/01/17 12:43:19;;;;;;;;;;;;;;;5.56;79.55;98015.89;105137;1303;71619;-74
2023/01/17 12:45:46;;;;;;;;;;;;;;;5.56;79.50;98020.36;105338;1301;59926;-75
2023/01/17 12:48:16;;;;;;;;;;;;;;;5.57;79.47;98016.88;105496;1299;59804;-75
2023/01/17 12:51:07;;;;;;;;;;;;;;;5.60;79.47;98015.23;105519;1294;74801;-75
2023/01/17 12:53:58;;;;;;;;;;;;;;;5.64;79.46;98016.27;105201;1300;70062;-75
2023/01/17 12:56:28;;;;;;;;;;;;;;;5.69;79.44;98020.55;105055;1301;72120;-75
2023/01/17 12:58:57;;;;;;;;;;;;;;;5.72;79.46;98019.20;105194;1302;59483;-74
2023/01/17 13:01:27;;;;;;;;;;;;;;;5.76;79.39;98016.48;105207;1300;59151;-74
2023/01/17 13:03:59;;;;;;;;;;;;;;;5.79;79.36;98018.60;105235;1305;74267;-74
2023/01/17 13:06:32;;;;;;;;;;;;;;;5.78;79.32;98019.11;105511;1293;69053;-74
2023/01/17 13:08:59;;;;;;;;;;;;;;;5.77;79.29;98028.73;105421;1297;71923;-74
2023/01/17 13:11:48;;;;;;;;;;;;;;;5.78;79.28;98033.69;105576;1293;58944;-74
2023/01/17 13:14:14;;;;;;;;;;;;;;;5.76;79.18;98038.17;105498;1296;59270;-74
2023/01/17 13:16:45;;;;;;;;;;;;;;;5.75;79.18;98041.11;105568;1294;59254;-74
2023/01/17 13:19:33;;;;;;;;;;;;;;;5.75;79.20;98047.30;105416;1294;66956;-75
2023/01/17 13:21:59;;;;;;;;;;;;;;;5.75;79.16;98050.71;105238;1300;71839;-75
2023/01/17 13:24:34;;;;;;;;;;;;;;;5.75;79.16;98050.02;105266;1299;59525;-75
2023/01/17 13:27:05;;;;;;;;;;;;;;;5.75;79.10;98054.98;105242;1299;58968;-75
2023/01/17 13:29:48;;;;;;;;;;;;;;;5.77;79.15;98053.17;105247;1298;75418;-75
2023/01/17 13:32:33;;;;;;;;;;;;;;;5.80;79.09;98060.94;105651;1294;66627;-76
2023/01/17 13:34:58;;;;;;;;;;;;;;;5.80;79.08;98062.98;105644;1295;73353;-76
2023/01/17 13:37:59;;;;;;;;;;;;;;;5.78;79.05;98071.95;105685;1294;59035;-76
2023/01/17 13:40:25;;;;;;;;;;;;;;;5.76;79.08;98073.05;105226;1301;59948;-77
2023/01/17 13:42:58;;;;;;;;;;;;;;;5.75;79.05;98080.62;105250;1299;59040;-76
2023/01/17 13:45:28;;;;;;;;;;;;;;;5.73;79.05;98084.63;104965;1297;66717;-76
2023/01/17 13:48:08;;;;;;;;;;;;;;;5.71;79.04;98086.80;105116;1300;70626;-76
2023/01/17 13:50:37;;;;;;;;;;;;;;;5.64;78.81;98088.21;105017;1300;59733;-76
2023/01/17 13:53:20;;;;;;;;;;;;;;;5.59;78.91;98095.41;97862;1300;10002885;-76
2023/01/17 13:55:49;;;;;;;;;;;;;;;5.56;78.88;98098.77;105201;1300;68466;-76
2023/01/17 13:58:28;;;;;;;;;;;;;;;5.53;78.92;98109.80;105066;1302;71393;-76
2023/01/17 14:00:53;;;;;;;;;;;;;;;5.49;78.95;98119.54;105528;1294;59524;-76
2023/01/17 14:03:37;;;;;;;;;;;;;;;5.42;78.92;98115.34;105500;1294;59440;-76
2023/01/17 14:06:02;;;;;;;;;;;;;;;5.33;78.89;98115.63;105508;1294;74238;-76
2023/01/17 14:08:28;;;;;;;;;;;;;;;5.28;78.94;98118.20;105559;1300;59175;-76
2023/01/17 14:11:03;;;;;;;;;;;;;;;5.26;78.94;98121.02;105462;1298;59081;-76
2023/01/17 14:13:38;;;;;;;;;;;;;;;5.25;78.99;98125.48;105556;1294;59119;-76
2023/01/17 14:16:22;;;;;;;;;;;;;;;5.24;78.95;98130.98;106098;1291;59901;-76
2023/01/17 14:18:48;;;;;;;;;;;;;;;5.23;78.88;98131.54;106003;1288;75299;-76
2023/01/17 14:21:24;;;;;;;;;;;;;;;5.23;78.92;98136.13;106133;1288;59481;-76